Time;durP1;ratioP1;P1;durP2;ratioP2;P2;SDS_P1;SDS_P2;PMS_P1;PMS_P2;Temp;Humidity;BMP_temperature;BMP_pressure;BME280_temperature;BME280_humidity;BME280_pressure;Samples;Min_cycle;Max_cycle;Signal;HPM_P1;HPM_P2
2023/08/14 00:04:53;;;;;;;;;;;20.10;99.90;;;;;;20881679;28;19952;-76
2023/08/14 00:14:54;;;;;;;;;;;20.10;99.90;;;;;;20872991;28;20031;-76
2023/08/14 00:24:54;;;;;;;;;;;20.20;99.90;;;;;;20870086;28;20395;-76
2023/08/14 00:34:55;;;;;;;;;;;20.10;99.90;;;;;;20878543;28;19916;-76
2023/08/14 00:44:56;;;;;;;;;;;19.80;99.90;;;;;;20865440;28;19913;-76
2023/08/14 00:54:56;;;;;;;;;;;19.60;99.90;;;;;;20893916;28;19924;-76
2023/08/14 01:04:57;;;;;;;;;;;19.40;99.90;;;;;;20867931;28;19920;-76
2023/08/14 01:15:01;;;;;;;;;;;19.60;99.90;;;;;;20865144;28;20284;-76
2023/08/14 01:25:18;;;;;;;;;;;19.60;99.90;;;;;;20863807;28;19920;-75
2023/08/14 01:35:20;;;;;;;;;;;19.30;99.90;;;;;;20862775;28;19917;-76
2023/08/14 01:45:22;;;;;;;;;;;19.50;99.90;;;;;;20871277;28;19913;-76
2023/08/14 01:55:24;;;;;;;;;;;19.60;99.90;;;;;;20862737;28;19917;-76
2023/08/14 02:05:24;;;;;;;;;;;19.60;99.90;;;;;;20909011;28;19936;-75
2023/08/14 02:15:25;;;;;;;;;;;19.70;99.90;;;;;;20866280;28;19917;-76
2023/08/14 02:25:26;;;;;;;;;;;19.80;99.90;;;;;;20897385;28;19912;-76
2023/08/14 02:35:27;;;;;;;;;;;19.80;99.90;;;;;;20902800;28;19917;-76
2023/08/14 02:45:31;;;;;;;;;;;19.80;99.90;;;;;;20908319;28;20136;-76
2023/08/14 02:55:32;;;;;;;;;;;19.80;99.90;;;;;;20904613;28;19920;-75
2023/08/14 03:05:33;;;;;;;;;;;19.80;99.90;;;;;;20915805;28;19985;-76
2023/08/14 03:15:33;;;;;;;;;;;19.80;99.90;;;;;;20931442;28;19919;-76
2023/08/14 03:25:34;;;;;;;;;;;19.70;99.90;;;;;;20915133;28;20390;-76
2023/08/14 03:35:35;;;;;;;;;;;19.70;99.90;;;;;;20888608;28;20063;-76
2023/08/14 03:45:37;;;;;;;;;;;19.60;99.90;;;;;;20918061;28;19920;-76
2023/08/14 03:55:37;;;;;;;;;;;19.60;99.90;;;;;;20992949;28;19935;-76
2023/08/14 04:05:39;;;;;;;;;;;19.50;99.90;;;;;;20931874;28;19971;-76
2023/08/14 04:15:40;;;;;;;;;;;19.30;99.90;;;;;;20909266;28;19952;-76
2023/08/14 04:25:40;;;;;;;;;;;19.20;99.90;;;;;;20909747;28;19916;-76
2023/08/14 04:35:41;;;;;;;;;;;19.10;99.90;;;;;;20923652;28;19975;-76
2023/08/14 04:45:42;;;;;;;;;;;19.00;99.90;;;;;;20924265;28;19916;-76
2023/08/14 04:55:43;;;;;;;;;;;19.00;99.90;;;;;;20907646;28;19916;-75
2023/08/14 05:05:49;;;;;;;;;;;19.00;99.90;;;;;;20924193;28;19917;-76
2023/08/14 05:15:50;;;;;;;;;;;19.10;99.90;;;;;;20920284;28;19951;-75
2023/08/14 05:25:51;;;;;;;;;;;19.20;99.90;;;;;;20921941;28;19917;-75
2023/08/14 05:35:52;;;;;;;;;;;19.20;99.90;;;;;;20939265;28;19916;-75
2023/08/14 05:45:52;;;;;;;;;;;19.50;99.90;;;;;;20934649;28;19928;-75
2023/08/14 05:55:53;;;;;;;;;;;19.70;99.90;;;;;;20931576;28;20016;-75
2023/08/14 06:05:54;;;;;;;;;;;20.00;99.90;;;;;;20925933;28;19917;-76
2023/08/14 06:15:54;;;;;;;;;;;20.50;99.90;;;;;;20942200;28;20490;-76
2023/08/14 06:25:56;;;;;;;;;;;21.10;99.90;;;;;;20936423;28;19923;-76
2023/08/14 06:35:57;;;;;;;;;;;21.30;99.90;;;;;;20903974;28;19928;-76
2023/08/14 06:45:58;;;;;;;;;;;21.50;99.90;;;;;;20914264;28;19917;-76
2023/08/14 06:55:58;;;;;;;;;;;22.10;99.90;;;;;;20938074;28;19917;-76
2023/08/14 07:05:59;;;;;;;;;;;22.40;99.90;;;;;;20897635;28;19921;-76
2023/08/14 07:15:59;;;;;;;;;;;22.60;99.90;;;;;;20830393;28;19920;-76
2023/08/14 07:26:11;;;;;;;;;;;23.40;99.90;;;;;;20846453;28;19945;-76
2023/08/14 07:36:12;;;;;;;;;;;23.80;99.90;;;;;;20906463;28;20459;-76
2023/08/14 07:46:12;;;;;;;;;;;24.90;99.90;;;;;;20941669;28;19916;-75
2023/08/14 07:56:13;;;;;;;;;;;24.70;99.90;;;;;;20916730;28;19916;-75
2023/08/14 08:06:13;;;;;;;;;;;25.40;99.90;;;;;;20898300;28;19939;-75
2023/08/14 08:16:14;;;;;;;;;;;25.60;99.90;;;;;;20919213;28;20006;-76
2023/08/14 08:26:15;;;;;;;;;;;26.10;99.90;;;;;;20925483;28;19924;-76
2023/08/14 08:36:17;;;;;;;;;;;27.70;99.90;;;;;;20927341;28;19952;-76
2023/08/14 08:46:19;;;;;;;;;;;27.80;99.90;;;;;;20924510;28;19927;-75
2023/08/14 08:56:20;;;;;;;;;;;27.80;99.90;;;;;;20930350;28;19913;-75
2023/08/14 09:06:21;;;;;;;;;;;29.30;99.90;;;;;;20922447;28;20079;-76
2023/08/14 09:16:23;;;;;;;;;;;30.20;99.90;;;;;;20921786;28;19913;-76
2023/08/14 09:26:24;;;;;;;;;;;29.70;99.90;;;;;;20920676;28;20371;-76
2023/08/14 09:36:32;;;;;;;;;;;29.20;99.90;;;;;;20906865;28;19921;-75
2023/08/14 09:46:32;;;;;;;;;;;29.30;99.90;;;;;;20883781;28;19924;-76
2023/08/14 09:56:33;;;;;;;;;;;29.30;99.90;;;;;;20883318;28;19917;-75
2023/08/14 10:06:34;;;;;;;;;;;29.90;99.90;;;;;;20921287;28;19916;-75
2023/08/14 10:16:36;;;;;;;;;;;29.70;99.90;;;;;;20912463;28;20347;-75
2023/08/14 10:26:37;;;;;;;;;;;30.20;99.90;;;;;;20920792;28;19917;-75
2023/08/14 10:36:38;;;;;;;;;;;31.20;99.90;;;;;;20942930;28;19917;-75
2023/08/14 10:46:42;;;;;;;;;;;31.00;99.90;;;;;;20884949;28;19917;-75
2023/08/14 10:56:45;;;;;;;;;;;29.90;99.90;;;;;;20902805;28;19913;-75
2023/08/14 11:07:08;;;;;;;;;;;29.90;99.90;;;;;;20916785;28;20017;-75
2023/08/14 11:17:09;;;;;;;;;;;29.40;99.90;;;;;;20868030;28;20003;-75
2023/08/14 11:27:11;;;;;;;;;;;29.90;99.90;;;;;;20902717;28;20319;-73
2023/08/14 11:37:14;;;;;;;;;;;29.50;99.90;;;;;;20894887;28;19917;-74
2023/08/14 11:47:18;;;;;;;;;;;29.20;99.90;;;;;;20845670;28;20437;-73
2023/08/14 11:57:22;;;;;;;;;;;29.60;99.90;;;;;;20816635;28;19913;-73
2023/08/14 12:07:32;;;;;;;;;;;29.70;99.90;;;;;;20894852;28;19916;-73
2023/08/14 12:17:35;;;;;;;;;;;29.80;99.90;;;;;;20868145;28;19944;-73
2023/08/14 12:27:37;;;;;;;;;;;30.30;99.90;;;;;;20830526;28;19921;-74
2023/08/14 12:37:41;;;;;;;;;;;30.30;99.90;;;;;;20827904;28;19932;-74
2023/08/14 12:47:42;;;;;;;;;;;30.40;99.90;;;;;;20852729;28;19917;-73
2023/08/14 12:57:43;;;;;;;;;;;30.50;99.90;;;;;;20829895;28;19948;-74
2023/08/14 13:07:44;;;;;;;;;;;29.40;99.90;;;;;;20871033;28;20413;-73
2023/08/14 13:17:45;;;;;;;;;;;29.10;99.90;;;;;;20894164;28;19913;-74
2023/08/14 13:27:46;;;;;;;;;;;29.20;99.90;;;;;;20888477;28;20414;-74
2023/08/14 13:37:46;;;;;;;;;;;28.90;99.90;;;;;;20875619;28;20029;-76
2023/08/14 13:47:47;;;;;;;;;;;29.00;99.90;;;;;;20823127;28;19917;-76
2023/08/14 13:57:47;;;;;;;;;;;29.60;99.90;;;;;;20840097;28;19913;-76
2023/08/14 14:07:48;;;;;;;;;;;29.70;99.90;;;;;;20914179;28;20192;-75
2023/08/14 14:17:49;;;;;;;;;;;29.40;99.90;;;;;;20909643;28;20291;-75
2023/08/14 14:27:49;;;;;;;;;;;29.10;99.90;;;;;;20920414;28;20363;-75
2023/08/14 14:37:50;;;;;;;;;;;29.60;99.90;;;;;;20921108;28;20341;-75
2023/08/14 14:47:51;;;;;;;;;;;30.50;99.90;;;;;;20919467;28;19916;-75
2023/08/14 14:57:51;;;;;;;;;;;30.90;99.90;;;;;;20919857;28;20008;-75
2023/08/14 15:07:52;;;;;;;;;;;31.10;99.90;;;;;;20918366;28;19962;-74
2023/08/14 15:17:53;;;;;;;;;;;30.90;99.90;;;;;;20901237;28;20142;-75
2023/08/14 15:27:53;;;;;;;;;;;31.50;99.90;;;;;;20908901;28;19920;-75
2023/08/14 15:37:54;;;;;;;;;;;32.00;99.90;;;;;;20916875;28;19921;-76
2023/08/14 15:47:58;;;;;;;;;;;31.90;99.90;;;;;;20918083;28;19986;-75
2023/08/14 15:57:58;;;;;;;;;;;30.80;99.90;;;;;;20922335;28;19960;-75
2023/08/14 16:07:59;;;;;;;;;;;30.20;99.90;;;;;;20914865;28;20350;-75
2023/08/14 16:18:00;;;;;;;;;;;30.50;99.90;;;;;;20911759;28;19913;-75
2023/08/14 16:28:01;;;;;;;;;;;30.50;99.90;;;;;;20910668;28;20398;-76
2023/08/14 16:38:01;;;;;;;;;;;30.00;99.90;;;;;;20909952;28;20402;-75
2023/08/14 16:48:03;;;;;;;;;;;29.20;99.90;;;;;;20876152;28;19994;-76
2023/08/14 16:58:04;;;;;;;;;;;29.40;99.90;;;;;;20869797;28;19967;-75
2023/08/14 17:08:05;;;;;;;;;;;29.40;99.90;;;;;;20868169;28;19917;-75
2023/08/14 17:18:06;;;;;;;;;;;29.80;99.90;;;;;;20900119;28;19913;-75
2023/08/14 17:28:06;;;;;;;;;;;29.60;99.90;;;;;;20903319;28;19917;-76
2023/08/14 17:38:07;;;;;;;;;;;29.10;99.90;;;;;;20920191;28;19992;-75
2023/08/14 17:48:07;;;;;;;;;;;28.60;99.90;;;;;;20909184;28;19924;-76
2023/08/14 17:58:08;;;;;;;;;;;27.50;99.90;;;;;;20879210;28;19974;-76
2023/08/14 18:08:09;;;;;;;;;;;27.00;99.90;;;;;;20880508;28;20035;-76
2023/08/14 18:18:10;;;;;;;;;;;26.40;99.90;;;;;;20880666;28;20553;-75
2023/08/14 18:28:10;;;;;;;;;;;25.90;99.90;;;;;;20879755;28;19917;-76
2023/08/14 18:38:11;;;;;;;;;;;25.90;99.90;;;;;;20874976;28;19924;-76
2023/08/14 18:48:12;;;;;;;;;;;25.10;99.90;;;;;;20900300;28;19921;-75
2023/08/14 18:58:13;;;;;;;;;;;24.70;99.90;;;;;;20885716;28;19919;-76
2023/08/14 19:08:13;;;;;;;;;;;24.30;99.90;;;;;;20894337;28;20050;-76
2023/08/14 19:18:14;;;;;;;;;;;24.10;99.90;;;;;;20896056;28;19917;-76
2023/08/14 19:28:15;;;;;;;;;;;23.60;99.90;;;;;;20872230;28;20431;-76
2023/08/14 19:38:16;;;;;;;;;;;23.40;99.90;;;;;;20863091;22;19925;-80
2023/08/14 19:48:16;;;;;;;;;;;23.20;99.90;;;;;;20785374;28;20326;-80
2023/08/14 19:58:17;;;;;;;;;;;23.40;99.90;;;;;;20782518;28;19913;-81
2023/08/14 20:08:19;;;;;;;;;;;23.40;99.90;;;;;;20774933;28;19918;-83
2023/08/14 20:18:20;;;;;;;;;;;22.60;99.90;;;;;;20749505;28;19913;-81
2023/08/14 20:28:20;;;;;;;;;;;22.50;99.90;;;;;;20804769;28;19924;-82
2023/08/14 20:38:21;;;;;;;;;;;22.30;99.90;;;;;;20807981;28;20004;-81
2023/08/14 20:48:22;;;;;;;;;;;22.10;99.90;;;;;;20793178;28;19921;-81
2023/08/14 20:58:22;;;;;;;;;;;21.90;99.90;;;;;;20753040;28;20021;-82
2023/08/14 21:08:23;;;;;;;;;;;21.80;99.90;;;;;;20750273;28;19917;-81
2023/08/14 21:18:24;;;;;;;;;;;21.70;99.90;;;;;;20782265;28;19913;-81
2023/08/14 21:28:25;;;;;;;;;;;21.50;99.90;;;;;;20793800;28;20383;-81
2023/08/14 21:38:25;;;;;;;;;;;21.50;99.90;;;;;;20793914;28;19953;-82
2023/08/14 21:48:26;;;;;;;;;;;21.50;99.90;;;;;;20794559;28;20396;-82
2023/08/14 21:58:27;;;;;;;;;;;21.30;99.90;;;;;;20784899;28;19913;-82
2023/08/14 22:08:28;;;;;;;;;;;21.30;99.90;;;;;;20788117;28;19963;-82
2023/08/14 22:18:29;;;;;;;;;;;20.70;99.90;;;;;;20783414;28;20333;-82
2023/08/14 22:28:29;;;;;;;;;;;21.40;99.90;;;;;;20800099;28;20352;-83
2023/08/14 22:38:30;;;;;;;;;;;21.30;99.90;;;;;;20782441;28;19928;-82
2023/08/14 22:48:31;;;;;;;;;;;21.30;99.90;;;;;;20796807;28;19921;-82
2023/08/14 22:58:32;;;;;;;;;;;20.80;99.90;;;;;;20801208;28;20330;-82
2023/08/14 23:08:33;;;;;;;;;;;20.60;99.90;;;;;;20791588;28;19917;-82
2023/08/14 23:18:33;;;;;;;;;;;20.10;99.90;;;;;;20797901;28;19919;-82
2023/08/14 23:28:34;;;;;;;;;;;20.30;99.90;;;;;;20812828;28;19945;-82
2023/08/14 23:38:35;;;;;;;;;;;20.10;99.90;;;;;;20799724;28;19918;-81
2023/08/14 23:48:36;;;;;;;;;;;19.90;99.90;;;;;;20780823;28;20056;-82
2023/08/14 23:58:36;;;;;;;;;;;20.00;99.90;;;;;;20794033;28;19913;-81
